Time;durP1;ratioP1;P1;durP2;ratioP2;P2;SDS_P1;SDS_P2;PMS_P1;PMS_P2;Temp;Humidity;BMP_temperature;BMP_pressure;BME280_temperature;BME280_humidity;BME280_pressure;Samples;Min_cycle;Max_cycle;Signal;HPM_P1;HPM_P2
2022/06/15 00:00:57;;;;;;;;;;;9.50;99.90;;;;;;4993890;28;19906;-72
2022/06/15 00:03:25;;;;;;;;;;;9.50;99.90;;;;;;4993769;28;19906;-74
2022/06/15 00:05:53;;;;;;;;;;;9.60;99.90;;;;;;4992796;28;20020;-72
2022/06/15 00:08:20;;;;;;;;;;;9.60;99.90;;;;;;4993625;28;19910;-73
2022/06/15 00:10:47;;;;;;;;;;;9.70;99.90;;;;;;4994046;28;20027;-71
2022/06/15 00:13:17;;;;;;;;;;;9.70;99.90;;;;;;4993980;28;20355;-74
2022/06/15 00:15:45;;;;;;;;;;;9.70;99.90;;;;;;4994360;28;20405;-74
2022/06/15 00:18:12;;;;;;;;;;;9.80;99.90;;;;;;5001924;28;19914;-73
2022/06/15 00:20:38;;;;;;;;;;;9.80;99.90;;;;;;5007737;28;19936;-72
2022/06/15 00:23:05;;;;;;;;;;;9.80;99.90;;;;;;5007370;28;19910;-73
2022/06/15 00:25:32;;;;;;;;;;;9.90;99.90;;;;;;5005968;28;19952;-74
2022/06/15 00:27:58;;;;;;;;;;;9.90;99.90;;;;;;4997609;28;19905;-73
2022/06/15 00:30:25;;;;;;;;;;;9.90;99.90;;;;;;4996480;28;20003;-74
2022/06/15 00:32:52;;;;;;;;;;;9.90;99.90;;;;;;4995987;28;19963;-75
2022/06/15 00:35:18;;;;;;;;;;;9.90;99.90;;;;;;4997382;28;19906;-73
2022/06/15 00:37:45;;;;;;;;;;;10.00;99.90;;;;;;4996686;28;19974;-74
2022/06/15 00:40:12;;;;;;;;;;;10.00;99.90;;;;;;4994808;28;19969;-74
2022/06/15 00:42:39;;;;;;;;;;;10.00;99.90;;;;;;4994320;28;20004;-75
2022/06/15 00:45:05;;;;;;;;;;;10.00;99.90;;;;;;4994242;28;19905;-76
2022/06/15 00:47:35;;;;;;;;;;;10.10;99.90;;;;;;4994548;28;19928;-74
2022/06/15 00:50:06;;;;;;;;;;;10.20;99.90;;;;;;4994515;28;19962;-73
2022/06/15 00:52:33;;;;;;;;;;;10.30;99.90;;;;;;4994790;28;19920;-74
2022/06/15 00:55:01;;;;;;;;;;;10.30;99.90;;;;;;4995110;28;20278;-73
2022/06/15 00:57:28;;;;;;;;;;;10.50;99.90;;;;;;4997548;28;19913;-73
2022/06/15 00:59:58;;;;;;;;;;;10.50;99.90;;;;;;4997061;28;19905;-75
2022/06/15 01:02:25;;;;;;;;;;;10.50;99.90;;;;;;4997001;28;20426;-74
2022/06/15 01:04:59;;;;;;;;;;;10.60;99.90;;;;;;4997065;28;19984;-74
2022/06/15 01:07:32;;;;;;;;;;;10.70;99.90;;;;;;4997027;28;20275;-75
2022/06/15 01:10:07;;;;;;;;;;;10.70;99.90;;;;;;4997144;28;19905;-73
2022/06/15 01:12:51;;;;;;;;;;;10.80;99.90;;;;;;4997215;28;19982;-73
2022/06/15 01:15:43;;;;;;;;;;;10.80;99.90;;;;;;4996891;28;19928;-73
2022/06/15 01:18:28;;;;;;;;;;;10.80;99.90;;;;;;4995533;28;19912;-75
2022/06/15 01:20:58;;;;;;;;;;;10.90;99.90;;;;;;4996916;28;19917;-73
2022/06/15 01:23:44;;;;;;;;;;;10.90;99.90;;;;;;4996885;28;20281;-73
2022/06/15 01:26:11;;;;;;;;;;;10.90;99.90;;;;;;4996711;28;20366;-73
2022/06/15 01:28:42;;;;;;;;;;;10.90;99.90;;;;;;4996343;28;19959;-74
2022/06/15 01:31:22;;;;;;;;;;;11.00;99.90;;;;;;4996680;28;19909;-74
2022/06/15 01:34:11;;;;;;;;;;;11.20;99.90;;;;;;4997236;28;19917;-73
2022/06/15 01:36:55;;;;;;;;;;;11.30;99.90;;;;;;4996595;28;19905;-73
2022/06/15 01:39:22;;;;;;;;;;;11.30;99.90;;;;;;4996417;28;20306;-74
2022/06/15 01:41:55;;;;;;;;;;;11.40;99.90;;;;;;4996548;28;20359;-74
2022/06/15 01:44:28;;;;;;;;;;;11.40;99.90;;;;;;4996434;28;20400;-74
2022/06/15 01:46:55;;;;;;;;;;;11.40;99.90;;;;;;4996277;28;19944;-76
2022/06/15 01:49:27;;;;;;;;;;;11.50;99.90;;;;;;4996359;28;19906;-73
2022/06/15 01:51:55;;;;;;;;;;;11.50;99.90;;;;;;4995976;28;19917;-74
2022/06/15 01:54:31;;;;;;;;;;;11.50;99.90;;;;;;4996320;28;20004;-74
2022/06/15 01:56:58;;;;;;;;;;;11.60;99.90;;;;;;4996037;28;20267;-73
2022/06/15 01:59:31;;;;;;;;;;;11.70;99.90;;;;;;4996032;28;19906;-74
2022/06/15 02:02:02;;;;;;;;;;;11.80;99.90;;;;;;4995943;28;19906;-74
2022/06/15 02:04:33;;;;;;;;;;;11.80;99.90;;;;;;4996003;28;19912;-75
2022/06/15 02:07:05;;;;;;;;;;;11.90;99.90;;;;;;4995519;28;19921;-74
2022/06/15 02:09:35;;;;;;;;;;;11.90;99.90;;;;;;4995816;28;19906;-74
2022/06/15 02:12:03;;;;;;;;;;;11.90;99.90;;;;;;4995791;28;20001;-73
2022/06/15 02:14:35;;;;;;;;;;;11.90;99.90;;;;;;4995692;28;20333;-73
2022/06/15 02:17:02;;;;;;;;;;;12.00;99.90;;;;;;4995840;28;19956;-73
2022/06/15 02:19:35;;;;;;;;;;;12.00;99.90;;;;;;4995700;28;20362;-76
2022/06/15 02:22:04;;;;;;;;;;;12.10;99.90;;;;;;4995554;28;19945;-75
2022/06/15 02:24:32;;;;;;;;;;;12.20;99.90;;;;;;4995528;28;19949;-73
2022/06/15 02:26:59;;;;;;;;;;;12.20;99.90;;;;;;4995529;28;19910;-73
2022/06/15 02:29:27;;;;;;;;;;;12.30;99.90;;;;;;4995583;28;20351;-73
2022/06/15 02:31:58;;;;;;;;;;;12.30;99.90;;;;;;4995630;28;19909;-75
2022/06/15 02:34:25;;;;;;;;;;;12.50;99.90;;;;;;4995314;28;19920;-73
2022/06/15 02:36:52;;;;;;;;;;;12.60;99.90;;;;;;4995342;28;19937;-75
2022/06/15 02:39:19;;;;;;;;;;;12.70;99.90;;;;;;4994853;28;19910;-73
2022/06/15 02:41:45;;;;;;;;;;;12.70;99.90;;;;;;4994927;28;19909;-73
2022/06/15 02:44:16;;;;;;;;;;;12.70;99.90;;;;;;4995024;28;19912;-73
2022/06/15 02:46:46;;;;;;;;;;;12.70;99.90;;;;;;4995014;28;19906;-77
2022/06/15 02:49:13;;;;;;;;;;;12.70;99.90;;;;;;4994957;28;19913;-73
2022/06/15 02:51:57;;;;;;;;;;;12.70;99.90;;;;;;4995071;28;19910;-75
2022/06/15 02:54:27;;;;;;;;;;;12.80;99.90;;;;;;4995245;28;19910;-74
2022/06/15 02:56:54;;;;;;;;;;;12.90;99.90;;;;;;4995109;28;19928;-74
2022/06/15 02:59:21;;;;;;;;;;;12.90;99.90;;;;;;4994664;28;19906;-75
2022/06/15 03:01:47;;;;;;;;;;;12.90;99.90;;;;;;4993657;28;19994;-73
2022/06/15 03:04:14;;;;;;;;;;;12.90;99.90;;;;;;4994821;28;19913;-73
2022/06/15 03:06:41;;;;;;;;;;;13.00;99.90;;;;;;4994683;28;19924;-74
2022/06/15 03:09:07;;;;;;;;;;;13.10;99.90;;;;;;4994741;28;19905;-73
2022/06/15 03:11:34;;;;;;;;;;;13.20;99.90;;;;;;4994572;28;19906;-73
2022/06/15 03:14:01;;;;;;;;;;;13.30;99.90;;;;;;4994699;28;20390;-73
2022/06/15 03:16:27;;;;;;;;;;;13.40;99.90;;;;;;4995066;28;19905;-74
2022/06/15 03:18:54;;;;;;;;;;;13.30;99.90;;;;;;4994574;28;19906;-74
2022/06/15 03:21:21;;;;;;;;;;;13.40;99.90;;;;;;4994716;28;20359;-73
2022/06/15 03:23:48;;;;;;;;;;;13.30;99.90;;;;;;4994785;28;20317;-77
2022/06/15 03:26:15;;;;;;;;;;;13.40;99.90;;;;;;4994425;28;19905;-73
2022/06/15 03:28:41;;;;;;;;;;;13.50;99.90;;;;;;4994375;28;20385;-74
2022/06/15 03:31:08;;;;;;;;;;;13.40;99.90;;;;;;4994521;28;20359;-73
2022/06/15 03:33:35;;;;;;;;;;;13.50;99.90;;;;;;4994676;28;19920;-74
2022/06/15 03:36:03;;;;;;;;;;;13.50;99.90;;;;;;4994579;28;20355;-74
2022/06/15 03:38:31;;;;;;;;;;;13.70;99.90;;;;;;4994741;28;20000;-73
2022/06/15 03:40:57;;;;;;;;;;;13.70;99.90;;;;;;4994641;28;19906;-73
2022/06/15 03:43:24;;;;;;;;;;;13.80;99.90;;;;;;4994424;28;19959;-74
2022/06/15 03:45:51;;;;;;;;;;;13.80;99.90;;;;;;4994441;28;19906;-73
2022/06/15 03:48:17;;;;;;;;;;;13.80;99.90;;;;;;4994536;28;19997;-73
2022/06/15 03:50:44;;;;;;;;;;;13.80;99.90;;;;;;4994754;28;19906;-75
2022/06/15 03:53:11;;;;;;;;;;;13.80;99.90;;;;;;4998490;28;19913;-75
2022/06/15 03:55:40;;;;;;;;;;;13.80;99.90;;;;;;4998287;28;19905;-74
2022/06/15 03:58:06;;;;;;;;;;;13.70;99.90;;;;;;4998177;28;19913;-73
2022/06/15 04:00:34;;;;;;;;;;;13.80;99.90;;;;;;4998224;28;19960;-74
2022/06/15 04:03:01;;;;;;;;;;;13.80;99.90;;;;;;4998151;28;19905;-73
2022/06/15 04:05:32;;;;;;;;;;;13.80;99.90;;;;;;4997922;28;19910;-75
2022/06/15 04:10:44;;;;;;;;;;;13.70;99.90;;;;;;4998642;28;19913;-74
2022/06/15 04:13:10;;;;;;;;;;;13.70;99.90;;;;;;4997986;28;20011;-72
2022/06/15 04:15:37;;;;;;;;;;;13.70;99.90;;;;;;4997808;28;19905;-75
2022/06/15 04:18:04;;;;;;;;;;;13.70;99.90;;;;;;4998047;28;19912;-73
2022/06/15 04:20:34;;;;;;;;;;;13.60;99.90;;;;;;4997954;28;20406;-73
2022/06/15 04:23:01;;;;;;;;;;;13.60;99.90;;;;;;5002809;28;20270;-77
2022/06/15 04:25:29;;;;;;;;;;;13.60;99.90;;;;;;5014336;28;19915;-77
2022/06/15 04:27:56;;;;;;;;;;;13.60;99.90;;;;;;5013244;28;19910;-75
2022/06/15 04:30:22;;;;;;;;;;;13.60;99.90;;;;;;5011148;28;19909;-75
2022/06/15 04:32:49;;;;;;;;;;;13.60;99.90;;;;;;5017041;28;19924;-73
2022/06/15 04:35:16;;;;;;;;;;;13.70;99.90;;;;;;5017264;28;20040;-73
2022/06/15 04:37:43;;;;;;;;;;;13.70;99.90;;;;;;5017082;28;20378;-76
2022/06/15 04:40:12;;;;;;;;;;;13.70;99.90;;;;;;5017004;28;19932;-74
2022/06/15 04:42:40;;;;;;;;;;;13.70;99.90;;;;;;5016759;28;19940;-74
2022/06/15 04:45:07;;;;;;;;;;;13.60;99.90;;;;;;5016994;28;19905;-74
2022/06/15 04:47:33;;;;;;;;;;;13.60;99.90;;;;;;5016574;28;20317;-74
2022/06/15 04:50:00;;;;;;;;;;;13.60;99.90;;;;;;5016742;28;19905;-77
2022/06/15 04:52:26;;;;;;;;;;;13.50;99.90;;;;;;5016719;28;19921;-73
2022/06/15 04:54:53;;;;;;;;;;;13.50;99.90;;;;;;5016687;28;19905;-76
2022/06/15 04:57:20;;;;;;;;;;;13.50;99.90;;;;;;5016696;28;20003;-73
2022/06/15 04:59:46;;;;;;;;;;;13.50;99.90;;;;;;5016601;28;19909;-74
2022/06/15 05:02:13;;;;;;;;;;;13.50;99.90;;;;;;5016626;28;19906;-74
2022/06/15 05:04:40;;;;;;;;;;;13.50;99.90;;;;;;5016229;28;19910;-76
2022/06/15 05:07:06;;;;;;;;;;;13.50;99.90;;;;;;5016166;28;20329;-74
2022/06/15 05:09:33;;;;;;;;;;;13.40;99.90;;;;;;5016080;28;19909;-74
2022/06/15 05:12:00;;;;;;;;;;;13.50;99.90;;;;;;5016503;28;19995;-75
2022/06/15 05:14:27;;;;;;;;;;;13.50;99.90;;;;;;5016584;28;19917;-74
2022/06/15 05:16:53;;;;;;;;;;;13.40;99.90;;;;;;5015046;28;19906;-76
2022/06/15 05:19:20;;;;;;;;;;;13.40;99.90;;;;;;5016362;28;20408;-77
2022/06/15 05:21:47;;;;;;;;;;;13.50;99.90;;;;;;5016442;28;19960;-75
2022/06/15 05:24:13;;;;;;;;;;;13.40;99.90;;;;;;5016250;28;19912;-76
2022/06/15 05:26:40;;;;;;;;;;;13.50;99.90;;;;;;5016127;28;19906;-77
2022/06/15 05:29:07;;;;;;;;;;;13.50;99.90;;;;;;5016262;28;19951;-77
2022/06/15 05:31:34;;;;;;;;;;;13.40;99.90;;;;;;5015982;28;20382;-74
2022/06/15 05:34:01;;;;;;;;;;;13.40;99.90;;;;;;5016549;28;19996;-75
2022/06/15 05:36:31;;;;;;;;;;;13.40;99.90;;;;;;5015938;28;19906;-76
2022/06/15 05:38:58;;;;;;;;;;;13.30;99.90;;;;;;5016125;28;19905;-76
2022/06/15 05:41:25;;;;;;;;;;;13.40;99.90;;;;;;5016179;28;19912;-77
2022/06/15 05:44:01;;;;;;;;;;;13.40;99.90;;;;;;5015984;28;20362;-73
2022/06/15 05:46:30;;;;;;;;;;;13.40;99.90;;;;;;5015642;28;19905;-77
2022/06/15 05:48:58;;;;;;;;;;;13.40;99.90;;;;;;5015862;28;19913;-73
2022/06/15 05:51:25;;;;;;;;;;;13.30;99.90;;;;;;5014461;28;19905;-74
2022/06/15 05:53:52;;;;;;;;;;;13.40;99.90;;;;;;5011679;28;19960;-75
2022/06/15 05:56:19;;;;;;;;;;;13.40;99.90;;;;;;5003971;28;20270;-78
2022/06/15 05:58:45;;;;;;;;;;;13.40;99.90;;;;;;5004345;28;19960;-74
2022/06/15 06:01:17;;;;;;;;;;;13.30;99.90;;;;;;5012783;28;19916;-74
2022/06/15 06:03:44;;;;;;;;;;;13.30;99.90;;;;;;5012423;28;19906;-73
2022/06/15 06:06:11;;;;;;;;;;;13.30;99.90;;;;;;5013346;28;19996;-73
2022/06/15 06:08:37;;;;;;;;;;;13.30;99.90;;;;;;5006526;28;19910;-73
2022/06/15 06:11:04;;;;;;;;;;;13.20;99.90;;;;;;5004379;28;20412;-74
2022/06/15 06:13:31;;;;;;;;;;;13.20;99.90;;;;;;5005750;28;20389;-76
2022/06/15 06:15:57;;;;;;;;;;;13.20;99.90;;;;;;5003440;28;19912;-74
2022/06/15 06:18:25;;;;;;;;;;;13.20;99.90;;;;;;5004410;28;19913;-77
2022/06/15 06:20:52;;;;;;;;;;;13.10;99.90;;;;;;5005844;28;19996;-73
2022/06/15 06:23:19;;;;;;;;;;;13.10;99.90;;;;;;5004297;28;20354;-77
2022/06/15 06:25:50;;;;;;;;;;;13.10;99.90;;;;;;5004211;28;19905;-73
2022/06/15 06:28:39;;;;;;;;;;;13.10;99.90;;;;;;5009690;28;19905;-72
2022/06/15 06:31:07;;;;;;;;;;;13.00;99.90;;;;;;5015240;28;19992;-73
2022/06/15 06:33:35;;;;;;;;;;;13.00;99.90;;;;;;5014454;28;20370;-73
2022/06/15 06:36:11;;;;;;;;;;;13.00;99.90;;;;;;5014800;28;19905;-75
2022/06/15 06:38:38;;;;;;;;;;;13.00;99.90;;;;;;5014998;28;19998;-73
2022/06/15 06:41:05;;;;;;;;;;;12.90;99.90;;;;;;5014977;28;20313;-73
2022/06/15 06:43:31;;;;;;;;;;;12.90;99.90;;;;;;5014781;28;20362;-73
2022/06/15 06:45:58;;;;;;;;;;;12.90;99.90;;;;;;5014223;28;19909;-74
2022/06/15 06:48:25;;;;;;;;;;;12.80;99.90;;;;;;5005985;28;19949;-73
2022/06/15 06:50:52;;;;;;;;;;;12.80;99.90;;;;;;5011370;28;19914;-73
2022/06/15 06:53:19;;;;;;;;;;;12.80;99.90;;;;;;5012334;28;20016;-76
2022/06/15 06:55:45;;;;;;;;;;;12.70;99.90;;;;;;5014822;28;19905;-74
2022/06/15 06:58:12;;;;;;;;;;;12.70;99.90;;;;;;5014428;28;19909;-73
2022/06/15 07:00:39;;;;;;;;;;;12.70;99.90;;;;;;5014484;28;19944;-73
2022/06/15 07:03:05;;;;;;;;;;;12.60;99.90;;;;;;5014673;28;19905;-73
2022/06/15 07:05:36;;;;;;;;;;;12.60;99.90;;;;;;5014235;28;19909;-74
2022/06/15 07:08:04;;;;;;;;;;;12.50;99.90;;;;;;5014479;28;19966;-76
2022/06/15 07:10:31;;;;;;;;;;;12.50;99.90;;;;;;5014645;28;20405;-72
2022/06/15 07:12:58;;;;;;;;;;;12.40;99.90;;;;;;5012702;28;19972;-77
2022/06/15 07:15:24;;;;;;;;;;;12.40;99.90;;;;;;5011366;28;19916;-77
2022/06/15 07:17:51;;;;;;;;;;;12.40;99.90;;;;;;5009628;28;19913;-72
2022/06/15 07:20:18;;;;;;;;;;;12.30;99.90;;;;;;5011891;28;19984;-76
2022/06/15 07:22:44;;;;;;;;;;;12.30;99.90;;;;;;5011770;28;19912;-74
2022/06/15 07:25:12;;;;;;;;;;;12.20;99.90;;;;;;5010958;28;19905;-75
2022/06/15 07:27:39;;;;;;;;;;;12.30;99.90;;;;;;5009593;28;20003;-73
2022/06/15 07:30:06;;;;;;;;;;;12.20;99.90;;;;;;5011278;28;19913;-77
2022/06/15 07:32:33;;;;;;;;;;;12.20;99.90;;;;;;5012338;28;19943;-74
2022/06/15 07:35:00;;;;;;;;;;;12.20;99.90;;;;;;5011914;28;19948;-73
2022/06/15 07:37:27;;;;;;;;;;;12.20;99.90;;;;;;5007854;28;20362;-74
2022/06/15 07:39:53;;;;;;;;;;;12.10;99.90;;;;;;5010810;28;19929;-77
2022/06/15 07:42:20;;;;;;;;;;;12.10;99.90;;;;;;5010245;28;20392;-77
2022/06/15 07:44:46;;;;;;;;;;;12.10;99.90;;;;;;5010581;28;20361;-73
2022/06/15 07:49:58;;;;;;;;;;;12.10;99.90;;;;;;5005351;28;19912;-78
2022/06/15 07:52:29;;;;;;;;;;;12.00;99.90;;;;;;5001541;28;19914;-74
2022/06/15 07:54:56;;;;;;;;;;;12.00;99.90;;;;;;5008567;28;20003;-77
2022/06/15 07:57:26;;;;;;;;;;;12.00;99.90;;;;;;5012595;28;19909;-75
2022/06/15 07:59:53;;;;;;;;;;;11.90;99.90;;;;;;4997553;28;20474;-76
2022/06/15 08:02:20;;;;;;;;;;;11.90;99.90;;;;;;4996720;28;19916;-75
2022/06/15 08:04:47;;;;;;;;;;;11.90;99.90;;;;;;4998654;28;19910;-75
2022/06/15 08:07:15;;;;;;;;;;;11.90;99.90;;;;;;4996650;28;19918;-77
2022/06/15 08:09:42;;;;;;;;;;;11.90;99.90;;;;;;4999023;28;19906;-76
2022/06/15 08:12:15;;;;;;;;;;;11.90;99.90;;;;;;4996394;28;19917;-76
2022/06/15 08:14:45;;;;;;;;;;;11.90;99.90;;;;;;4998637;28;20350;-76
2022/06/15 08:17:17;;;;;;;;;;;11.90;99.90;;;;;;4995969;28;19906;-74
2022/06/15 08:19:47;;;;;;;;;;;11.80;99.90;;;;;;4999800;28;19905;-77
2022/06/15 08:22:14;;;;;;;;;;;11.80;99.90;;;;;;5002046;28;20057;-74
2022/06/15 08:24:41;;;;;;;;;;;11.80;99.90;;;;;;5008057;28;20405;-79
2022/06/15 08:27:09;;;;;;;;;;;11.80;99.90;;;;;;5011246;28;19905;-74
2022/06/15 08:29:38;;;;;;;;;;;11.80;99.90;;;;;;5011788;28;19928;-78
2022/06/15 08:32:04;;;;;;;;;;;11.80;99.90;;;;;;5011311;28;19975;-74
2022/06/15 08:34:36;;;;;;;;;;;11.80;99.90;;;;;;5010616;28;19910;-78
2022/06/15 08:37:03;;;;;;;;;;;11.80;99.90;;;;;;5012180;28;19963;-74
2022/06/15 08:39:30;;;;;;;;;;;11.70;99.90;;;;;;5015556;28;19905;-73
2022/06/15 08:41:59;;;;;;;;;;;11.70;99.90;;;;;;5016501;28;19905;-74
2022/06/15 08:44:26;;;;;;;;;;;11.80;99.90;;;;;;5016287;28;19905;-77
2022/06/15 08:46:52;;;;;;;;;;;11.70;99.90;;;;;;5016026;28;19906;-74
2022/06/15 08:49:22;;;;;;;;;;;11.70;99.90;;;;;;5014671;28;20326;-75
2022/06/15 08:51:55;;;;;;;;;;;11.70;99.90;;;;;;5015702;28;20397;-73
2022/06/15 08:54:27;;;;;;;;;;;11.70;99.90;;;;;;5014847;28;19910;-74
2022/06/15 08:56:59;;;;;;;;;;;11.70;99.90;;;;;;5016225;28;19905;-74
2022/06/15 08:59:35;;;;;;;;;;;11.70;99.90;;;;;;5015468;28;19906;-76
2022/06/15 09:02:28;;;;;;;;;;;11.60;99.90;;;;;;5015981;28;19915;-75
2022/06/15 09:05:13;;;;;;;;;;;11.60;99.90;;;;;;4999972;28;19909;-74
2022/06/15 09:07:45;;;;;;;;;;;11.60;99.90;;;;;;5015204;28;19921;-74
2022/06/15 09:10:33;;;;;;;;;;;11.60;99.90;;;;;;5015165;28;19906;-74
2022/06/15 09:13:13;;;;;;;;;;;11.60;99.90;;;;;;5014880;28;19924;-73
2022/06/15 09:15:58;;;;;;;;;;;11.60;99.90;;;;;;5015605;28;20055;-74
2022/06/15 09:18:25;;;;;;;;;;;11.60;99.90;;;;;;5014531;28;20332;-73
2022/06/15 09:21:01;;;;;;;;;;;11.60;99.90;;;;;;5015115;28;19909;-75
2022/06/15 09:23:40;;;;;;;;;;;11.60;99.90;;;;;;5013657;28;19910;-74
2022/06/15 09:26:13;;;;;;;;;;;11.60;99.90;;;;;;5013417;28;20286;-74
2022/06/15 09:28:43;;;;;;;;;;;11.60;99.90;;;;;;5013001;28;19910;-74
2022/06/15 09:31:12;;;;;;;;;;;11.60;99.90;;;;;;5012696;28;20270;-75
2022/06/15 09:33:59;;;;;;;;;;;11.60;99.90;;;;;;5014499;28;19917;-73
2022/06/15 09:36:31;;;;;;;;;;;11.50;99.90;;;;;;5014303;28;20003;-73
2022/06/15 09:38:58;;;;;;;;;;;11.50;99.90;;;;;;5012348;28;19913;-74
2022/06/15 09:41:40;;;;;;;;;;;11.50;99.90;;;;;;5010666;28;19905;-73
2022/06/15 09:44:07;;;;;;;;;;;11.50;99.90;;;;;;5011878;28;19905;-76
2022/06/15 09:46:40;;;;;;;;;;;11.50;99.90;;;;;;5009017;28;19952;-74
2022/06/15 09:49:07;;;;;;;;;;;11.50;99.90;;;;;;5010108;28;20425;-73
2022/06/15 09:51:48;;;;;;;;;;;11.40;99.90;;;;;;5010377;28;19933;-74
2022/06/15 09:54:16;;;;;;;;;;;11.50;99.90;;;;;;5012991;28;20255;-74
2022/06/15 09:56:42;;;;;;;;;;;11.40;99.90;;;;;;5009051;28;19996;-74
2022/06/15 09:59:12;;;;;;;;;;;11.40;99.90;;;;;;5005722;28;20040;-74
2022/06/15 10:01:45;;;;;;;;;;;11.40;99.90;;;;;;5005174;28;19960;-74
2022/06/15 10:04:23;;;;;;;;;;;11.40;99.90;;;;;;5005447;28;19992;-74
2022/06/15 10:06:56;;;;;;;;;;;11.40;99.90;;;;;;5013513;28;20251;-75
2022/06/15 10:09:26;;;;;;;;;;;11.40;99.90;;;;;;5007784;28;19913;-73
2022/06/15 10:11:55;;;;;;;;;;;11.40;99.90;;;;;;5004646;28;20044;-75
2022/06/15 10:14:30;;;;;;;;;;;11.40;99.90;;;;;;5011837;28;19918;-74
2022/06/15 10:16:57;;;;;;;;;;;11.50;99.90;;;;;;5004889;28;20853;-75
2022/06/15 10:19:25;;;;;;;;;;;11.50;99.90;;;;;;5010901;28;19928;-73
2022/06/15 10:21:54;;;;;;;;;;;11.50;99.90;;;;;;5007633;28;19910;-77
2022/06/15 10:24:21;;;;;;;;;;;11.50;99.90;;;;;;5014800;28;19905;-74
2022/06/15 10:26:49;;;;;;;;;;;11.50;99.90;;;;;;5014535;28;20359;-73
2022/06/15 10:29:18;;;;;;;;;;;11.60;99.90;;;;;;5014184;28;19906;-74
2022/06/15 10:31:57;;;;;;;;;;;11.50;99.90;;;;;;5014362;28;20279;-74
2022/06/15 10:34:31;;;;;;;;;;;11.50;99.90;;;;;;5013370;28;19917;-75
2022/06/15 10:37:00;;;;;;;;;;;11.50;99.90;;;;;;5012429;28;20051;-75
2022/06/15 10:39:32;;;;;;;;;;;11.50;99.90;;;;;;5013417;28;20302;-75
2022/06/15 10:42:31;;;;;;;;;;;11.50;99.90;;;;;;5013055;28;19912;-74
2022/06/15 10:44:59;;;;;;;;;;;11.50;99.90;;;;;;4990567;28;19999;-74
2022/06/15 10:47:29;;;;;;;;;;;11.50;99.90;;;;;;5013493;28;20313;-74
2022/06/15 10:50:00;;;;;;;;;;;11.50;99.90;;;;;;5011840;28;19909;-73
2022/06/15 10:52:38;;;;;;;;;;;11.50;99.90;;;;;;5010747;28;19909;-76
2022/06/15 11:03:48;;;;;;;;;;;11.50;99.90;;;;;;5009917;28;19956;-73
2022/06/15 11:06:15;;;;;;;;;;;11.50;99.90;;;;;;5010417;28;19917;-73
2022/06/15 11:08:44;;;;;;;;;;;11.50;99.90;;;;;;5010000;28;19916;-73
2022/06/15 11:11:17;;;;;;;;;;;11.50;99.90;;;;;;5013277;28;19909;-74
2022/06/15 11:13:52;;;;;;;;;;;11.50;99.90;;;;;;5012774;28;19936;-73
2022/06/15 11:19:22;;;;;;;;;;;11.40;99.90;;;;;;5011075;28;19956;-73
2022/06/15 11:22:05;;;;;;;;;;;11.40;99.90;;;;;;5011286;28;19993;-74
2022/06/15 11:24:44;;;;;;;;;;;11.40;99.90;;;;;;5013069;28;19929;-73
2022/06/15 11:27:17;;;;;;;;;;;11.30;99.90;;;;;;5007881;28;19913;-74
2022/06/15 11:29:50;;;;;;;;;;;11.30;99.90;;;;;;5010898;28;19910;-73
2022/06/15 11:32:16;;;;;;;;;;;11.20;99.90;;;;;;5012015;28;19916;-74
2022/06/15 11:34:52;;;;;;;;;;;11.20;99.90;;;;;;5010550;28;20386;-74
2022/06/15 11:37:23;;;;;;;;;;;11.20;99.90;;;;;;5011894;28;19913;-73
2022/06/15 11:39:56;;;;;;;;;;;11.10;99.90;;;;;;5011387;28;19916;-77
2022/06/15 11:42:24;;;;;;;;;;;11.10;99.90;;;;;;5012741;28;20366;-79
2022/06/15 11:44:51;;;;;;;;;;;11.10;99.90;;;;;;5008943;28;19928;-80
2022/06/15 11:47:34;;;;;;;;;;;11.10;99.90;;;;;;5010026;28;19921;-76
2022/06/15 11:50:07;;;;;;;;;;;11.10;99.90;;;;;;5009078;28;19909;-79
2022/06/15 11:52:41;;;;;;;;;;;11.10;99.90;;;;;;5011598;28;19909;-79
2022/06/15 11:55:14;;;;;;;;;;;11.10;99.90;;;;;;5010334;28;19910;-79
2022/06/15 11:57:59;;;;;;;;;;;11.00;99.90;;;;;;5012850;28;19909;-75
2022/06/15 12:00:33;;;;;;;;;;;11.00;99.90;;;;;;5012606;28;19928;-76
2022/06/15 12:03:06;;;;;;;;;;;11.00;99.90;;;;;;5010368;28;19905;-76
2022/06/15 12:05:36;;;;;;;;;;;11.00;99.90;;;;;;5008800;28;19996;-75
2022/06/15 12:08:09;;;;;;;;;;;11.00;99.90;;;;;;5008369;28;19981;-75
2022/06/15 12:10:40;;;;;;;;;;;11.00;99.90;;;;;;5008676;28;20367;-76
2022/06/15 12:13:12;;;;;;;;;;;10.90;99.90;;;;;;5011852;28;19913;-75
2022/06/15 12:15:45;;;;;;;;;;;10.90;99.90;;;;;;5012924;28;19910;-75
2022/06/15 12:18:19;;;;;;;;;;;10.90;99.90;;;;;;5013955;28;20239;-72
2022/06/15 12:21:04;;;;;;;;;;;10.80;99.90;;;;;;5011944;28;20093;-73
2022/06/15 12:23:37;;;;;;;;;;;10.80;99.90;;;;;;5008029;28;19912;-77
2022/06/15 12:26:13;;;;;;;;;;;10.70;99.90;;;;;;5004698;28;20495;-74
2022/06/15 12:28:45;;;;;;;;;;;10.70;99.90;;;;;;5005754;28;20007;-73
2022/06/15 12:31:20;;;;;;;;;;;10.60;99.90;;;;;;5006446;28;19905;-73
2022/06/15 12:34:05;;;;;;;;;;;10.60;99.90;;;;;;5008379;28;19913;-75
2022/06/15 12:36:55;;;;;;;;;;;10.60;99.90;;;;;;5006928;28;19933;-74
2022/06/15 12:39:30;;;;;;;;;;;10.50;99.90;;;;;;5007594;28;19906;-74
2022/06/15 12:42:14;;;;;;;;;;;10.50;99.90;;;;;;5007213;28;19905;-74
2022/06/15 12:44:47;;;;;;;;;;;10.50;99.90;;;;;;5007516;28;19909;-74
2022/06/15 12:47:17;;;;;;;;;;;10.40;99.90;;;;;;5006778;28;19968;-73
2022/06/15 12:50:03;;;;;;;;;;;10.40;99.90;;;;;;5007456;28;19906;-73
2022/06/15 12:52:48;;;;;;;;;;;10.40;99.90;;;;;;5000683;28;19909;-74
2022/06/15 12:55:23;;;;;;;;;;;10.30;99.90;;;;;;5006950;28;20365;-75
2022/06/15 12:57:50;;;;;;;;;;;10.30;99.90;;;;;;5006241;28;19917;-74
2022/06/15 13:00:21;;;;;;;;;;;10.30;99.90;;;;;;5005412;28;19916;-73
2022/06/15 13:02:57;;;;;;;;;;;10.30;99.90;;;;;;5005819;28;19976;-73
2022/06/15 13:05:31;;;;;;;;;;;10.30;99.90;;;;;;5005072;28;20000;-74
2022/06/15 13:08:07;;;;;;;;;;;10.30;99.90;;;;;;5003688;28;20359;-73
2022/06/15 13:10:34;;;;;;;;;;;10.30;99.90;;;;;;5005756;28;20316;-74
2022/06/15 13:13:03;;;;;;;;;;;10.30;99.90;;;;;;5006793;28;19920;-76
2022/06/15 13:15:33;;;;;;;;;;;10.30;99.90;;;;;;5006535;28;19910;-73
2022/06/15 13:18:22;;;;;;;;;;;10.30;99.90;;;;;;5004683;28;19909;-74
2022/06/15 13:20:48;;;;;;;;;;;10.40;99.90;;;;;;5005777;28;20346;-74
2022/06/15 13:23:25;;;;;;;;;;;10.40;99.90;;;;;;5005101;28;19933;-74
2022/06/15 13:25:53;;;;;;;;;;;10.40;99.90;;;;;;5005753;28;19909;-75
2022/06/15 13:28:23;;;;;;;;;;;10.50;99.90;;;;;;5004332;28;19913;-75
2022/06/15 13:30:54;;;;;;;;;;;10.50;99.90;;;;;;4998399;28;19910;-74
2022/06/15 13:33:21;;;;;;;;;;;10.50;99.90;;;;;;4998400;28;19921;-74
2022/06/15 13:36:09;;;;;;;;;;;10.50;99.90;;;;;;5001878;28;19931;-74
2022/06/15 13:38:36;;;;;;;;;;;10.50;99.90;;;;;;5002364;28;19906;-74
2022/06/15 13:41:03;;;;;;;;;;;10.50;99.90;;;;;;5009960;28;20004;-77
2022/06/15 13:43:51;;;;;;;;;;;10.60;99.90;;;;;;5015532;28;20401;-73
2022/06/15 13:46:27;;;;;;;;;;;10.60;99.90;;;;;;5015624;28;19929;-77
2022/06/15 13:48:54;;;;;;;;;;;10.60;99.90;;;;;;5015496;28;19932;-74
2022/06/15 13:51:34;;;;;;;;;;;10.60;99.90;;;;;;5015694;28;20354;-74
2022/06/15 13:54:04;;;;;;;;;;;10.60;99.90;;;;;;5015403;28;19979;-74
2022/06/15 13:56:31;;;;;;;;;;;10.60;99.90;;;;;;5015931;28;19906;-77
2022/06/15 13:59:22;;;;;;;;;;;10.60;99.90;;;;;;5015264;28;19905;-73
2022/06/15 14:02:06;;;;;;;;;;;10.60;99.90;;;;;;5015568;28;19912;-74
2022/06/15 14:04:48;;;;;;;;;;;10.60;99.90;;;;;;5015687;28;20409;-74
2022/06/15 14:07:18;;;;;;;;;;;10.60;99.90;;;;;;5015402;28;19972;-73
2022/06/15 14:10:11;;;;;;;;;;;10.60;99.90;;;;;;5015624;28;20275;-74
2022/06/15 14:12:44;;;;;;;;;;;10.70;99.90;;;;;;5007039;28;20354;-74
2022/06/15 14:15:23;;;;;;;;;;;10.70;99.90;;;;;;5015414;28;19912;-73
2022/06/15 14:18:08;;;;;;;;;;;10.70;99.90;;;;;;5015416;28;19959;-74
2022/06/15 14:20:39;;;;;;;;;;;10.70;99.90;;;;;;5013977;28;19920;-72
2022/06/15 14:23:08;;;;;;;;;;;10.70;99.90;;;;;;5015211;28;19996;-72
2022/06/15 14:25:37;;;;;;;;;;;10.60;99.90;;;;;;5013921;28;19905;-72
2022/06/15 14:28:06;;;;;;;;;;;10.60;99.90;;;;;;5015367;28;19909;-74
2022/06/15 14:30:33;;;;;;;;;;;10.60;99.90;;;;;;5015344;28;19932;-75
2022/06/15 14:33:02;;;;;;;;;;;10.60;99.90;;;;;;5015188;28;19920;-75
2022/06/15 14:35:30;;;;;;;;;;;10.70;99.90;;;;;;5014286;28;20270;-72
2022/06/15 14:38:00;;;;;;;;;;;10.70;99.90;;;;;;5014978;28;19910;-73
2022/06/15 14:40:27;;;;;;;;;;;10.70;99.90;;;;;;5013847;28;19952;-73
2022/06/15 14:42:57;;;;;;;;;;;10.70;99.90;;;;;;5015286;28;19913;-72
2022/06/15 14:45:29;;;;;;;;;;;10.70;99.90;;;;;;5015087;28;19910;-72
2022/06/15 14:47:57;;;;;;;;;;;10.70;99.90;;;;;;5014792;28;19947;-75
2022/06/15 14:50:26;;;;;;;;;;;10.70;99.90;;;;;;5014903;28;19909;-76
2022/06/15 14:52:53;;;;;;;;;;;10.70;99.90;;;;;;5014804;28;19975;-74
2022/06/15 14:55:24;;;;;;;;;;;10.70;99.90;;;;;;5001115;28;19921;-73